sensor_id;sensor_type;location;lat;lon;timestamp;P1;P2;P0
73687;PMS7003;62257;48.376;-4.378;2022-12-29T00:01:38;3.00;2.00;1.00
73687;PMS7003;62257;48.376;-4.378;2022-12-29T00:04:04;2.50;1.00;1.00
73687;PMS7003;62257;48.376;-4.378;2022-12-29T00:06:30;3.25;1.00;1.00
73687;PMS7003;62257;48.376;-4.378;2022-12-29T00:08:56;8.25;4.25;3.00
73687;PMS7003;62257;48.376;-4.378;2022-12-29T00:11:25;5.00;2.00;1.00
73687;PMS7003;62257;48.376;-4.378;2022-12-29T00:13:52;4.50;2.25;1.00
73687;PMS7003;62257;48.376;-4.378;2022-12-29T00:16:36;5.00;2.50;2.00
73687;PMS7003;62257;48.376;-4.378;2022-12-29T00:19:03;7.00;2.00;2.00
73687;PMS7003;62257;48.376;-4.378;2022-12-29T00:21:29;6.25;4.00;1.50
73687;PMS7003;62257;48.376;-4.378;2022-12-29T00:24:15;6.25;3.25;1.25
73687;PMS7003;62257;48.376;-4.378;2022-12-29T00:29:47;5.75;3.00;2.00
73687;PMS7003;62257;48.376;-4.378;2022-12-29T00:32:31;5.50;3.00;2.25
73687;PMS7003;62257;48.376;-4.378;2022-12-29T00:35:21;7.75;2.75;1.00
73687;PMS7003;62257;48.376;-4.378;2022-12-29T00:37:54;10.75;3.00;2.00
73687;PMS7003;62257;48.376;-4.378;2022-12-29T00:40:42;4.75;4.00;2.00
73687;PMS7003;62257;48.376;-4.378;2022-12-29T00:43:26;3.75;3.00;1.50
73687;PMS7003;62257;48.376;-4.378;2022-12-29T00:46:09;4.75;2.75;1.00
73687;PMS7003;62257;48.376;-4.378;2022-12-29T00:48:35;4.25;0.25;0.00
73687;PMS7003;62257;48.376;-4.378;2022-12-29T00:51:19;9.75;4.00;2.00
73687;PMS7003;62257;48.376;-4.378;2022-12-29T00:53:44;8.00;4.00;2.00
73687;PMS7003;62257;48.376;-4.378;2022-12-29T00:56:10;13.00;3.75;2.00
73687;PMS7003;62257;48.376;-4.378;2022-12-29T00:58:35;4.75;3.00;1.25
73687;PMS7003;62257;48.376;-4.378;2022-12-29T01:01:04;10.00;4.50;2.50
73687;PMS7003;62257;48.376;-4.378;2022-12-29T01:03:32;5.00;3.75;1.00
73687;PMS7003;62257;48.376;-4.378;2022-12-29T01:06:03;9.25;5.00;2.00
73687;PMS7003;62257;48.376;-4.378;2022-12-29T01:08:30;5.00;4.00;2.00
73687;PMS7003;62257;48.376;-4.378;2022-12-29T01:11:03;11.50;3.25;2.00
73687;PMS7003;62257;48.376;-4.378;2022-12-29T01:13:30;13.75;4.00;2.00
73687;PMS7003;62257;48.376;-4.378;2022-12-29T01:15:56;4.50;2.75;1.75
73687;PMS7003;62257;48.376;-4.378;2022-12-29T01:18:22;8.00;4.25;2.00
73687;PMS7003;62257;48.376;-4.378;2022-12-29T01:20:49;9.25;4.50;2.00
73687;PMS7003;62257;48.376;-4.378;2022-12-29T01:23:15;5.00;3.00;2.00
73687;PMS7003;62257;48.376;-4.378;2022-12-29T01:25:40;2.50;2.00;1.00
73687;PMS7003;62257;48.376;-4.378;2022-12-29T01:28:06;0.00;0.00;0.00
73687;PMS7003;62257;48.376;-4.378;2022-12-29T01:30:33;5.25;1.00;0.75
73687;PMS7003;62257;48.376;-4.378;2022-12-29T01:32:59;3.75;0.75;0.00
73687;PMS7003;62257;48.376;-4.378;2022-12-29T01:35:25;2.50;1.75;1.00
73687;PMS7003;62257;48.376;-4.378;2022-12-29T01:37:50;12.50;2.75;1.75
73687;PMS7003;62257;48.376;-4.378;2022-12-29T01:40:15;4.00;1.75;1.00
73687;PMS7003;62257;48.376;-4.378;2022-12-29T01:42:41;8.00;2.75;1.00
73687;PMS7003;62257;48.376;-4.378;2022-12-29T01:50:41;3.75;3.00;3.00
73687;PMS7003;62257;48.376;-4.378;2022-12-29T01:53:13;7.50;3.50;2.00
73687;PMS7003;62257;48.376;-4.378;2022-12-29T01:55:43;9.00;2.25;1.00
73687;PMS7003;62257;48.376;-4.378;2022-12-29T01:58:13;9.25;2.00;1.00
73687;PMS7003;62257;48.376;-4.378;2022-12-29T02:00:40;7.25;2.00;1.00
73687;PMS7003;62257;48.376;-4.378;2022-12-29T02:03:06;5.50;2.25;1.25
73687;PMS7003;62257;48.376;-4.378;2022-12-29T02:08:37;3.00;2.00;0.75
73687;PMS7003;62257;48.376;-4.378;2022-12-29T02:11:03;4.50;1.00;0.25
73687;PMS7003;62257;48.376;-4.378;2022-12-29T02:13:29;1.75;1.75;1.00
73687;PMS7003;62257;48.376;-4.378;2022-12-29T02:21:41;8.25;1.50;1.00
73687;PMS7003;62257;48.376;-4.378;2022-12-29T02:24:23;2.00;2.00;1.00
73687;PMS7003;62257;48.376;-4.378;2022-12-29T02:40:22;6.00;1.25;1.00
73687;PMS7003;62257;48.376;-4.378;2022-12-29T02:43:07;7.25;3.25;1.25
73687;PMS7003;62257;48.376;-4.378;2022-12-29T02:45:47;5.00;1.00;0.25
73687;PMS7003;62257;48.376;-4.378;2022-12-29T02:51:03;3.00;1.00;1.00
73687;PMS7003;62257;48.376;-4.378;2022-12-29T02:53:33;5.25;3.75;2.00
73687;PMS7003;62257;48.376;-4.378;2022-12-29T02:56:19;9.25;1.75;1.00
73687;PMS7003;62257;48.376;-4.378;2022-12-29T02:58:45;0.50;0.50;0.25
73687;PMS7003;62257;48.376;-4.378;2022-12-29T03:06:38;3.00;2.50;1.50
73687;PMS7003;62257;48.376;-4.378;2022-12-29T03:12:15;5.00;3.00;1.00
73687;PMS7003;62257;48.376;-4.378;2022-12-29T03:15:12;10.00;5.00;1.00
73687;PMS7003;62257;48.376;-4.378;2022-12-29T03:18:15;4.50;1.00;1.00
73687;PMS7003;62257;48.376;-4.378;2022-12-29T03:20:50;7.50;2.50;2.00
73687;PMS7003;62257;48.376;-4.378;2022-12-29T03:23:18;2.75;1.50;0.75
73687;PMS7003;62257;48.376;-4.378;2022-12-29T03:25:49;3.00;2.00;1.00
73687;PMS7003;62257;48.376;-4.378;2022-12-29T03:28:20;2.75;2.75;1.00
73687;PMS7003;62257;48.376;-4.378;2022-12-29T03:30:49;4.00;2.25;1.00
73687;PMS7003;62257;48.376;-4.378;2022-12-29T03:33:17;3.50;0.00;0.00
73687;PMS7003;62257;48.376;-4.378;2022-12-29T03:35:45;1.00;0.25;0.00
73687;PMS7003;62257;48.376;-4.378;2022-12-29T03:38:19;0.00;0.00;0.00
73687;PMS7003;62257;48.376;-4.378;2022-12-29T03:41:07;2.00;0.00;0.00
73687;PMS7003;62257;48.376;-4.378;2022-12-29T03:43:35;0.50;0.25;0.00
73687;PMS7003;62257;48.376;-4.378;2022-12-29T03:46:01;1.75;0.00;0.00
73687;PMS7003;62257;48.376;-4.378;2022-12-29T03:48:26;3.75;0.75;0.25
73687;PMS7003;62257;48.376;-4.378;2022-12-29T03:50:52;1.00;0.25;0.00
73687;PMS7003;62257;48.376;-4.378;2022-12-29T03:53:17;7.00;2.00;0.75
73687;PMS7003;62257;48.376;-4.378;2022-12-29T03:55:43;0.50;0.50;0.00
73687;PMS7003;62257;48.376;-4.378;2022-12-29T03:58:08;2.50;0.50;0.50
73687;PMS7003;62257;48.376;-4.378;2022-12-29T04:00:33;4.25;2.25;1.00
73687;PMS7003;62257;48.376;-4.378;2022-12-29T04:02:59;5.75;3.50;1.00
73687;PMS7003;62257;48.376;-4.378;2022-12-29T04:05:24;4.50;2.00;0.50
73687;PMS7003;62257;48.376;-4.378;2022-12-29T04:07:50;1.50;0.25;0.00
73687;PMS7003;62257;48.376;-4.378;2022-12-29T04:10:15;3.00;0.00;0.00
73687;PMS7003;62257;48.376;-4.378;2022-12-29T04:12:40;2.00;1.00;1.00
73687;PMS7003;62257;48.376;-4.378;2022-12-29T04:15:07;1.00;0.00;0.00
73687;PMS7003;62257;48.376;-4.378;2022-12-29T04:17:33;2.25;0.00;0.00
73687;PMS7003;62257;48.376;-4.378;2022-12-29T04:19:58;0.25;0.00;0.00
73687;PMS7003;62257;48.376;-4.378;2022-12-29T04:22:42;0.00;0.00;0.00
73687;PMS7003;62257;48.376;-4.378;2022-12-29T04:25:08;0.50;0.00;0.00
73687;PMS7003;62257;48.376;-4.378;2022-12-29T04:27:34;2.00;1.00;0.25
73687;PMS7003;62257;48.376;-4.378;2022-12-29T04:29:59;3.00;1.00;0.00
73687;PMS7003;62257;48.376;-4.378;2022-12-29T04:32:24;5.50;2.75;1.00
73687;PMS7003;62257;48.376;-4.378;2022-12-29T04:34:50;1.50;1.00;0.75
73687;PMS7003;62257;48.376;-4.378;2022-12-29T04:37:15;3.25;3.00;2.00
73687;PMS7003;62257;48.376;-4.378;2022-12-29T04:39:40;8.75;2.50;1.75
73687;PMS7003;62257;48.376;-4.378;2022-12-29T04:42:06;3.50;1.00;1.00
73687;PMS7003;62257;48.376;-4.378;2022-12-29T04:44:31;2.00;2.00;1.00
73687;PMS7003;62257;48.376;-4.378;2022-12-29T04:46:57;7.00;4.00;2.00
73687;PMS7003;62257;48.376;-4.378;2022-12-29T04:49:22;7.00;2.00;0.00
73687;PMS7003;62257;48.376;-4.378;2022-12-29T04:51:47;6.00;2.75;1.00
73687;PMS7003;62257;48.376;-4.378;2022-12-29T04:54:13;9.75;2.75;1.25
73687;PMS7003;62257;48.376;-4.378;2022-12-29T04:56:38;3.75;2.75;2.00
73687;PMS7003;62257;48.376;-4.378;2022-12-29T04:59:03;6.75;2.75;1.00
73687;PMS7003;62257;48.376;-4.378;2022-12-29T05:01:29;3.75;2.00;0.00
73687;PMS7003;62257;48.376;-4.378;2022-12-29T05:03:54;5.50;1.75;1.00
73687;PMS7003;62257;48.376;-4.378;2022-12-29T05:06:20;2.50;1.25;0.50
73687;PMS7003;62257;48.376;-4.378;2022-12-29T05:08:45;3.00;2.00;1.00
73687;PMS7003;62257;48.376;-4.378;2022-12-29T05:11:11;1.00;1.00;0.25
73687;PMS7003;62257;48.376;-4.378;2022-12-29T05:13:36;3.00;0.25;0.25
73687;PMS7003;62257;48.376;-4.378;2022-12-29T05:16:01;5.75;2.25;1.00
73687;PMS7003;62257;48.376;-4.378;2022-12-29T05:18:27;2.75;1.00;0.50
73687;PMS7003;62257;48.376;-4.378;2022-12-29T05:20:52;3.00;1.00;0.25
73687;PMS7003;62257;48.376;-4.378;2022-12-29T05:23:18;4.25;2.00;1.00
73687;PMS7003;62257;48.376;-4.378;2022-12-29T05:25:43;3.00;3.00;2.00
73687;PMS7003;62257;48.376;-4.378;2022-12-29T05:28:10;5.50;2.00;1.75
73687;PMS7003;62257;48.376;-4.378;2022-12-29T05:30:36;8.25;2.00;1.50
73687;PMS7003;62257;48.376;-4.378;2022-12-29T05:33:01;2.75;1.50;1.00
73687;PMS7003;62257;48.376;-4.378;2022-12-29T05:35:26;5.50;2.25;1.00
73687;PMS7003;62257;48.376;-4.378;2022-12-29T05:37:52;4.00;1.25;1.00
73687;PMS7003;62257;48.376;-4.378;2022-12-29T05:40:17;7.50;3.25;0.00
73687;PMS7003;62257;48.376;-4.378;2022-12-29T05:42:43;5.00;1.50;0.50
73687;PMS7003;62257;48.376;-4.378;2022-12-29T05:45:08;3.00;1.50;1.00
73687;PMS7003;62257;48.376;-4.378;2022-12-29T05:47:34;8.00;4.00;2.00
73687;PMS7003;62257;48.376;-4.378;2022-12-29T05:50:00;5.00;4.00;1.75
73687;PMS7003;62257;48.376;-4.378;2022-12-29T05:52:25;7.25;3.00;1.25
73687;PMS7003;62257;48.376;-4.378;2022-12-29T05:54:51;5.50;3.00;2.00
73687;PMS7003;62257;48.376;-4.378;2022-12-29T05:57:16;8.75;2.50;2.00
73687;PMS7003;62257;48.376;-4.378;2022-12-29T05:59:41;3.50;3.00;1.00
73687;PMS7003;62257;48.376;-4.378;2022-12-29T06:02:07;5.50;4.00;2.00
73687;PMS7003;62257;48.376;-4.378;2022-12-29T06:04:32;5.00;2.75;1.00
73687;PMS7003;62257;48.376;-4.378;2022-12-29T06:06:58;10.50;5.00;2.00
73687;PMS7003;62257;48.376;-4.378;2022-12-29T06:09:23;13.00;5.25;2.75
73687;PMS7003;62257;48.376;-4.378;2022-12-29T06:11:48;9.00;3.50;2.50
73687;PMS7003;62257;48.376;-4.378;2022-12-29T06:14:14;15.25;5.00;3.00
73687;PMS7003;62257;48.376;-4.378;2022-12-29T06:16:39;4.75;2.50;1.00
73687;PMS7003;62257;48.376;-4.378;2022-12-29T06:19:04;8.25;2.25;2.00
73687;PMS7003;62257;48.376;-4.378;2022-12-29T06:21:30;7.50;3.00;1.50
73687;PMS7003;62257;48.376;-4.378;2022-12-29T06:23:55;7.00;4.00;2.00
73687;PMS7003;62257;48.376;-4.378;2022-12-29T06:26:21;4.75;2.00;1.00
73687;PMS7003;62257;48.376;-4.378;2022-12-29T06:28:46;4.00;2.00;1.50
73687;PMS7003;62257;48.376;-4.378;2022-12-29T06:31:11;5.25;3.00;1.75
73687;PMS7003;62257;48.376;-4.378;2022-12-29T06:33:37;10.50;3.00;2.00
73687;PMS7003;62257;48.376;-4.378;2022-12-29T06:36:03;7.25;0.25;0.25
73687;PMS7003;62257;48.376;-4.378;2022-12-29T06:38:29;4.75;3.00;1.75
73687;PMS7003;62257;48.376;-4.378;2022-12-29T06:40:54;6.25;3.00;1.00
73687;PMS7003;62257;48.376;-4.378;2022-12-29T06:43:20;2.00;1.00;0.00
73687;PMS7003;62257;48.376;-4.378;2022-12-29T06:45:45;4.00;1.00;0.25
73687;PMS7003;62257;48.376;-4.378;2022-12-29T06:48:11;5.50;2.00;1.00
73687;PMS7003;62257;48.376;-4.378;2022-12-29T06:50:36;3.00;1.75;0.00
73687;PMS7003;62257;48.376;-4.378;2022-12-29T06:53:02;0.50;0.25;0.00
73687;PMS7003;62257;48.376;-4.378;2022-12-29T06:55:27;7.00;2.00;1.00
73687;PMS7003;62257;48.376;-4.378;2022-12-29T06:57:56;3.00;0.75;0.00
73687;PMS7003;62257;48.376;-4.378;2022-12-29T07:00:22;3.50;1.25;1.00
73687;PMS7003;62257;48.376;-4.378;2022-12-29T07:02:48;2.00;0.50;0.00
73687;PMS7003;62257;48.376;-4.378;2022-12-29T07:05:14;1.00;1.00;0.00
73687;PMS7003;62257;48.376;-4.378;2022-12-29T07:07:39;1.75;0.00;0.00
73687;PMS7003;62257;48.376;-4.378;2022-12-29T07:10:05;1.00;0.25;0.00
73687;PMS7003;62257;48.376;-4.378;2022-12-29T07:12:30;0.50;0.00;0.00
73687;PMS7003;62257;48.376;-4.378;2022-12-29T07:14:56;2.50;0.50;0.00
73687;PMS7003;62257;48.376;-4.378;2022-12-29T07:17:21;2.50;0.00;0.00
73687;PMS7003;62257;48.376;-4.378;2022-12-29T07:19:46;3.50;1.00;0.00
73687;PMS7003;62257;48.376;-4.378;2022-12-29T07:22:12;1.50;0.00;0.00
73687;PMS7003;62257;48.376;-4.378;2022-12-29T07:24:37;3.25;0.00;0.00
73687;PMS7003;62257;48.376;-4.378;2022-12-29T07:27:03;7.00;1.00;0.75
73687;PMS7003;62257;48.376;-4.378;2022-12-29T07:29:28;2.00;1.75;1.00
73687;PMS7003;62257;48.376;-4.378;2022-12-29T07:31:54;3.75;2.25;1.25
73687;PMS7003;62257;48.376;-4.378;2022-12-29T07:34:19;3.25;2.00;1.00
73687;PMS7003;62257;48.376;-4.378;2022-12-29T07:36:44;4.50;2.25;1.00
73687;PMS7003;62257;48.376;-4.378;2022-12-29T07:39:10;7.00;3.00;1.00
73687;PMS7003;62257;48.376;-4.378;2022-12-29T07:41:36;4.50;3.00;1.00
73687;PMS7003;62257;48.376;-4.378;2022-12-29T07:44:02;2.75;1.00;1.00
73687;PMS7003;62257;48.376;-4.378;2022-12-29T07:46:27;7.25;3.25;1.50
73687;PMS7003;62257;48.376;-4.378;2022-12-29T07:48:52;3.50;1.75;0.75
73687;PMS7003;62257;48.376;-4.378;2022-12-29T07:51:18;4.00;1.75;1.00
73687;PMS7003;62257;48.376;-4.378;2022-12-29T07:53:43;1.00;1.00;0.00
73687;PMS7003;62257;48.376;-4.378;2022-12-29T07:56:08;1.25;1.00;0.00
73687;PMS7003;62257;48.376;-4.378;2022-12-29T07:58:34;4.75;2.00;1.50
73687;PMS7003;62257;48.376;-4.378;2022-12-29T08:00:59;5.25;1.50;0.00
73687;PMS7003;62257;48.376;-4.378;2022-12-29T08:03:25;3.00;2.00;1.00
73687;PMS7003;62257;48.376;-4.378;2022-12-29T08:05:51;3.00;1.00;1.00
73687;PMS7003;62257;48.376;-4.378;2022-12-29T08:08:16;3.75;2.00;1.00
73687;PMS7003;62257;48.376;-4.378;2022-12-29T08:10:42;3.50;1.25;1.00
73687;PMS7003;62257;48.376;-4.378;2022-12-29T08:13:08;1.00;1.00;0.75
73687;PMS7003;62257;48.376;-4.378;2022-12-29T08:15:33;1.00;1.00;0.50
73687;PMS7003;62257;48.376;-4.378;2022-12-29T08:17:58;2.25;1.00;0.00
73687;PMS7003;62257;48.376;-4.378;2022-12-29T08:20:24;1.00;1.00;0.25
73687;PMS7003;62257;48.376;-4.378;2022-12-29T08:22:50;2.75;1.75;1.00
73687;PMS7003;62257;48.376;-4.378;2022-12-29T08:25:16;0.00;0.00;0.00
73687;PMS7003;62257;48.376;-4.378;2022-12-29T08:27:41;1.00;1.00;0.00
73687;PMS7003;62257;48.376;-4.378;2022-12-29T08:30:07;2.00;1.00;0.50
73687;PMS7003;62257;48.376;-4.378;2022-12-29T08:32:33;3.00;1.00;0.00
73687;PMS7003;62257;48.376;-4.378;2022-12-29T08:34:58;6.25;2.50;1.00
73687;PMS7003;62257;48.376;-4.378;2022-12-29T08:37:24;4.25;1.50;0.75
73687;PMS7003;62257;48.376;-4.378;2022-12-29T08:39:49;4.75;0.00;0.00
73687;PMS7003;62257;48.376;-4.378;2022-12-29T08:42:15;2.25;1.00;0.50
73687;PMS7003;62257;48.376;-4.378;2022-12-29T08:44:40;1.25;1.00;0.50
73687;PMS7003;62257;48.376;-4.378;2022-12-29T08:47:06;2.00;0.25;0.00
73687;PMS7003;62257;48.376;-4.378;2022-12-29T08:49:31;3.25;1.25;1.00
73687;PMS7003;62257;48.376;-4.378;2022-12-29T08:51:58;2.00;0.00;0.00
73687;PMS7003;62257;48.376;-4.378;2022-12-29T08:54:24;5.25;2.75;1.00
73687;PMS7003;62257;48.376;-4.378;2022-12-29T08:56:49;6.50;2.00;0.25
73687;PMS7003;62257;48.376;-4.378;2022-12-29T08:59:14;8.25;2.75;1.00
73687;PMS7003;62257;48.376;-4.378;2022-12-29T09:01:40;4.00;1.00;0.00
73687;PMS7003;62257;48.376;-4.378;2022-12-29T09:04:05;3.50;2.00;1.00
73687;PMS7003;62257;48.376;-4.378;2022-12-29T09:06:31;2.00;2.00;1.50
73687;PMS7003;62257;48.376;-4.378;2022-12-29T09:08:57;6.00;2.25;1.50
73687;PMS7003;62257;48.376;-4.378;2022-12-29T09:11:23;4.75;1.00;0.75
73687;PMS7003;62257;48.376;-4.378;2022-12-29T09:13:49;2.25;2.00;1.00
73687;PMS7003;62257;48.376;-4.378;2022-12-29T09:16:16;1.25;1.00;0.75
73687;PMS7003;62257;48.376;-4.378;2022-12-29T09:18:42;2.75;1.00;1.00
73687;PMS7003;62257;48.376;-4.378;2022-12-29T09:21:09;4.25;2.00;1.00
73687;PMS7003;62257;48.376;-4.378;2022-12-29T09:23:35;2.25;1.00;0.25
73687;PMS7003;62257;48.376;-4.378;2022-12-29T09:26:01;3.50;2.00;1.00
73687;PMS7003;62257;48.376;-4.378;2022-12-29T09:28:28;4.25;2.00;1.00
73687;PMS7003;62257;48.376;-4.378;2022-12-29T09:30:54;5.25;1.25;1.00
73687;PMS7003;62257;48.376;-4.378;2022-12-29T09:33:20;5.75;3.25;2.00
73687;PMS7003;62257;48.376;-4.378;2022-12-29T09:35:50;9.25;2.00;1.00
73687;PMS7003;62257;48.376;-4.378;2022-12-29T09:38:19;4.25;3.00;1.00
73687;PMS7003;62257;48.376;-4.378;2022-12-29T09:40:46;2.25;0.00;0.00
73687;PMS7003;62257;48.376;-4.378;2022-12-29T09:45:49;3.75;0.00;0.00
73687;PMS7003;62257;48.376;-4.378;2022-12-29T09:48:38;5.50;2.00;1.00
73687;PMS7003;62257;48.376;-4.378;2022-12-29T09:51:10;0.75;0.50;0.00
73687;PMS7003;62257;48.376;-4.378;2022-12-29T09:53:44;1.75;1.00;0.00
73687;PMS7003;62257;48.376;-4.378;2022-12-29T09:56:20;4.00;0.50;0.00
73687;PMS7003;62257;48.376;-4.378;2022-12-29T09:58:56;1.75;1.75;1.00
73687;PMS7003;62257;48.376;-4.378;2022-12-29T10:01:30;4.00;0.00;0.00
73687;PMS7003;62257;48.376;-4.378;2022-12-29T10:04:08;3.00;1.00;0.25
73687;PMS7003;62257;48.376;-4.378;2022-12-29T10:09:19;0.00;0.00;0.00
73687;PMS7003;62257;48.376;-4.378;2022-12-29T10:25:31;1.00;0.00;0.00
73687;PMS7003;62257;48.376;-4.378;2022-12-29T10:28:01;1.00;0.00;0.00
73687;PMS7003;62257;48.376;-4.378;2022-12-29T10:30:32;3.00;0.00;0.00
73687;PMS7003;62257;48.376;-4.378;2022-12-29T10:33:01;0.75;0.50;0.00
73687;PMS7003;62257;48.376;-4.378;2022-12-29T10:35:34;0.50;0.50;0.25
73687;PMS7003;62257;48.376;-4.378;2022-12-29T10:38:20;0.00;0.00;0.00
73687;PMS7003;62257;48.376;-4.378;2022-12-29T10:40:56;2.50;0.00;0.00
73687;PMS7003;62257;48.376;-4.378;2022-12-29T10:43:43;0.00;0.00;0.00
73687;PMS7003;62257;48.376;-4.378;2022-12-29T10:46:17;1.00;0.00;0.00
73687;PMS7003;62257;48.376;-4.378;2022-12-29T10:48:46;0.00;0.00;0.00
73687;PMS7003;62257;48.376;-4.378;2022-12-29T10:51:18;0.00;0.00;0.00
73687;PMS7003;62257;48.376;-4.378;2022-12-29T10:54:03;0.25;0.00;0.00
73687;PMS7003;62257;48.376;-4.378;2022-12-29T10:56:37;2.00;0.50;0.00
73687;PMS7003;62257;48.376;-4.378;2022-12-29T11:06:57;1.75;0.00;0.00
73687;PMS7003;62257;48.376;-4.378;2022-12-29T11:09:33;0.75;0.00;0.00
73687;PMS7003;62257;48.376;-4.378;2022-12-29T11:12:23;5.75;1.00;0.50
73687;PMS7003;62257;48.376;-4.378;2022-12-29T11:14:47;4.00;1.00;1.00
73687;PMS7003;62257;48.376;-4.378;2022-12-29T11:17:25;1.50;0.25;0.00
73687;PMS7003;62257;48.376;-4.378;2022-12-29T11:19:51;2.50;1.00;0.00
73687;PMS7003;62257;48.376;-4.378;2022-12-29T11:22:23;7.75;1.00;0.00
73687;PMS7003;62257;48.376;-4.378;2022-12-29T11:24:52;4.00;0.50;0.00
73687;PMS7003;62257;48.376;-4.378;2022-12-29T11:27:20;1.00;1.00;0.25
73687;PMS7003;62257;48.376;-4.378;2022-12-29T11:29:51;1.50;1.00;0.00
73687;PMS7003;62257;48.376;-4.378;2022-12-29T11:32:21;1.00;0.00;0.00
73687;PMS7003;62257;48.376;-4.378;2022-12-29T11:34:48;2.00;1.00;0.00
73687;PMS7003;62257;48.376;-4.378;2022-12-29T11:37:18;3.75;3.00;0.50
73687;PMS7003;62257;48.376;-4.378;2022-12-29T11:42:17;1.00;0.00;0.00
73687;PMS7003;62257;48.376;-4.378;2022-12-29T11:44:47;0.50;0.25;0.00
73687;PMS7003;62257;48.376;-4.378;2022-12-29T11:47:25;0.75;0.50;0.50
73687;PMS7003;62257;48.376;-4.378;2022-12-29T11:49:55;0.00;0.00;0.00
73687;PMS7003;62257;48.376;-4.378;2022-12-29T11:52:24;0.50;0.00;0.00
73687;PMS7003;62257;48.376;-4.378;2022-12-29T11:54:51;2.50;0.00;0.00
73687;PMS7003;62257;48.376;-4.378;2022-12-29T11:57:18;0.50;0.00;0.00
73687;PMS7003;62257;48.376;-4.378;2022-12-29T11:59:53;0.00;0.00;0.00
73687;PMS7003;62257;48.376;-4.378;2022-12-29T12:02:32;4.00;0.00;0.00
73687;PMS7003;62257;48.376;-4.378;2022-12-29T12:07:54;6.75;0.75;0.75
73687;PMS7003;62257;48.376;-4.378;2022-12-29T12:10:34;0.00;0.00;0.00
73687;PMS7003;62257;48.376;-4.378;2022-12-29T12:13:20;0.50;0.00;0.00
73687;PMS7003;62257;48.376;-4.378;2022-12-29T12:17:19;0.00;0.00;0.00
73687;PMS7003;62257;48.376;-4.378;2022-12-29T12:22:25;1.00;0.00;0.00
73687;PMS7003;62257;48.376;-4.378;2022-12-29T12:25:17;0.00;0.00;0.00
73687;PMS7003;62257;48.376;-4.378;2022-12-29T12:30:46;2.00;0.00;0.00
73687;PMS7003;62257;48.376;-4.378;2022-12-29T12:39:11;1.00;0.00;0.00
73687;PMS7003;62257;48.376;-4.378;2022-12-29T12:44:27;0.00;0.00;0.00
73687;PMS7003;62257;48.376;-4.378;2022-12-29T12:47:17;1.00;1.00;1.00
73687;PMS7003;62257;48.376;-4.378;2022-12-29T13:06:35;2.00;0.00;0.00
73687;PMS7003;62257;48.376;-4.378;2022-12-29T13:14:40;0.75;0.00;0.00
73687;PMS7003;62257;48.376;-4.378;2022-12-29T13:17:27;0.00;0.00;0.00
73687;PMS7003;62257;48.376;-4.378;2022-12-29T13:22:45;1.00;0.00;0.00
73687;PMS7003;62257;48.376;-4.378;2022-12-29T13:25:32;1.50;0.25;0.00
73687;PMS7003;62257;48.376;-4.378;2022-12-29T13:28:12;0.00;0.00;0.00
73687;PMS7003;62257;48.376;-4.378;2022-12-29T13:31:10;1.00;0.00;0.00
73687;PMS7003;62257;48.376;-4.378;2022-12-29T13:33:49;0.75;0.00;0.00
73687;PMS7003;62257;48.376;-4.378;2022-12-29T13:36:45;0.00;0.00;0.00
73687;PMS7003;62257;48.376;-4.378;2022-12-29T13:39:27;1.25;0.00;0.00
73687;PMS7003;62257;48.376;-4.378;2022-12-29T13:41:58;1.50;0.50;0.00
73687;PMS7003;62257;48.376;-4.378;2022-12-29T13:44:28;2.00;0.00;0.00
73687;PMS7003;62257;48.376;-4.378;2022-12-29T13:46:59;1.50;0.00;0.00
73687;PMS7003;62257;48.376;-4.378;2022-12-29T13:49:30;0.00;0.00;0.00
73687;PMS7003;62257;48.376;-4.378;2022-12-29T13:52:09;1.25;0.00;0.00
73687;PMS7003;62257;48.376;-4.378;2022-12-29T13:58:03;1.00;0.50;0.00
73687;PMS7003;62257;48.376;-4.378;2022-12-29T14:00:53;2.75;1.00;0.00
73687;PMS7003;62257;48.376;-4.378;2022-12-29T14:06:26;0.00;0.00;0.00
73687;PMS7003;62257;48.376;-4.378;2022-12-29T14:09:03;1.25;0.00;0.00
73687;PMS7003;62257;48.376;-4.378;2022-12-29T14:11:34;0.00;0.00;0.00
73687;PMS7003;62257;48.376;-4.378;2022-12-29T14:17:18;0.25;0.00;0.00
73687;PMS7003;62257;48.376;-4.378;2022-12-29T14:19:45;0.50;0.00;0.00
73687;PMS7003;62257;48.376;-4.378;2022-12-29T14:22:11;1.25;0.00;0.00
73687;PMS7003;62257;48.376;-4.378;2022-12-29T14:24:44;0.00;0.00;0.00
73687;PMS7003;62257;48.376;-4.378;2022-12-29T14:34:58;2.50;0.00;0.00
73687;PMS7003;62257;48.376;-4.378;2022-12-29T14:42:39;1.00;1.00;0.00
73687;PMS7003;62257;48.376;-4.378;2022-12-29T14:47:39;1.25;0.00;0.00
73687;PMS7003;62257;48.376;-4.378;2022-12-29T14:50:08;2.50;1.00;0.00
73687;PMS7003;62257;48.376;-4.378;2022-12-29T14:58:15;0.50;0.00;0.00
73687;PMS7003;62257;48.376;-4.378;2022-12-29T15:00:45;3.50;0.75;0.00
73687;PMS7003;62257;48.376;-4.378;2022-12-29T15:05:56;0.00;0.00;0.00
73687;PMS7003;62257;48.376;-4.378;2022-12-29T15:08:31;3.25;0.00;0.00
73687;PMS7003;62257;48.376;-4.378;2022-12-29T15:11:06;3.00;0.00;0.00
73687;PMS7003;62257;48.376;-4.378;2022-12-29T15:13:39;5.75;2.00;1.00
73687;PMS7003;62257;48.376;-4.378;2022-12-29T15:16:25;0.25;0.25;0.00
73687;PMS7003;62257;48.376;-4.378;2022-12-29T15:18:55;0.75;0.75;0.25
73687;PMS7003;62257;48.376;-4.378;2022-12-29T15:21:25;3.25;1.00;1.00
73687;PMS7003;62257;48.376;-4.378;2022-12-29T15:23:55;1.50;0.75;0.00
73687;PMS7003;62257;48.376;-4.378;2022-12-29T15:26:21;0.50;0.00;0.00
73687;PMS7003;62257;48.376;-4.378;2022-12-29T15:28:48;3.00;0.00;0.00
73687;PMS7003;62257;48.376;-4.378;2022-12-29T15:31:23;1.50;1.00;0.00
73687;PMS7003;62257;48.376;-4.378;2022-12-29T15:33:51;2.00;0.00;0.00
73687;PMS7003;62257;48.376;-4.378;2022-12-29T15:36:21;2.00;0.00;0.00
73687;PMS7003;62257;48.376;-4.378;2022-12-29T15:38:48;0.00;0.00;0.00
73687;PMS7003;62257;48.376;-4.378;2022-12-29T15:43:49;1.00;0.00;0.00
73687;PMS7003;62257;48.376;-4.378;2022-12-29T15:46:16;1.25;1.00;0.50
73687;PMS7003;62257;48.376;-4.378;2022-12-29T15:48:42;3.00;0.00;0.00
73687;PMS7003;62257;48.376;-4.378;2022-12-29T15:51:23;1.25;0.00;0.00
73687;PMS7003;62257;48.376;-4.378;2022-12-29T15:53:55;1.25;1.00;0.00
73687;PMS7003;62257;48.376;-4.378;2022-12-29T15:56:21;0.00;0.00;0.00
73687;PMS7003;62257;48.376;-4.378;2022-12-29T15:58:48;2.00;0.25;0.25
73687;PMS7003;62257;48.376;-4.378;2022-12-29T16:01:27;2.00;1.00;0.50
73687;PMS7003;62257;48.376;-4.378;2022-12-29T16:03:57;1.00;0.00;0.00
73687;PMS7003;62257;48.376;-4.378;2022-12-29T16:06:34;1.50;0.00;0.00
73687;PMS7003;62257;48.376;-4.378;2022-12-29T16:09:05;0.75;0.75;0.00
73687;PMS7003;62257;48.376;-4.378;2022-12-29T16:11:50;2.50;1.00;0.00
73687;PMS7003;62257;48.376;-4.378;2022-12-29T16:14:20;1.00;0.00;0.00
73687;PMS7003;62257;48.376;-4.378;2022-12-29T16:16:53;2.00;0.25;0.00
73687;PMS7003;62257;48.376;-4.378;2022-12-29T16:22:00;2.25;0.50;0.00
73687;PMS7003;62257;48.376;-4.378;2022-12-29T16:24:30;2.50;1.00;0.00
73687;PMS7003;62257;48.376;-4.378;2022-12-29T16:29:25;2.50;1.00;0.00
73687;PMS7003;62257;48.376;-4.378;2022-12-29T16:31:55;9.00;1.00;1.00
73687;PMS7003;62257;48.376;-4.378;2022-12-29T16:39:46;5.00;1.00;0.00
73687;PMS7003;62257;48.376;-4.378;2022-12-29T16:50:29;2.25;1.75;1.00
73687;PMS7003;62257;48.376;-4.378;2022-12-29T16:52:55;1.00;1.00;0.00
73687;PMS7003;62257;48.376;-4.378;2022-12-29T16:55:21;3.50;1.00;0.25
73687;PMS7003;62257;48.376;-4.378;2022-12-29T16:57:47;0.00;0.00;0.00
73687;PMS7003;62257;48.376;-4.378;2022-12-29T17:00:26;1.00;0.25;0.00
73687;PMS7003;62257;48.376;-4.378;2022-12-29T17:02:54;1.50;0.00;0.00
73687;PMS7003;62257;48.376;-4.378;2022-12-29T17:05:23;2.50;1.00;0.25
73687;PMS7003;62257;48.376;-4.378;2022-12-29T17:07:48;3.00;1.00;1.00
73687;PMS7003;62257;48.376;-4.378;2022-12-29T17:10:15;0.75;0.00;0.00
73687;PMS7003;62257;48.376;-4.378;2022-12-29T17:12:42;2.00;0.00;0.00